Maoming, China
Current Conditions -  °F | °C
As of 4:00 AM on Monday 24 Nov 2014 (Local Time) from ZJHK Reporting Station
Clear Clear  
Wind Chill: 72°   Ceiling: Unl
Heat Index: 72°   Visibility: 4mi
Dew Point: 68°   Wind: 2mph
Humidity: 88%   Direction: 90°E
Pressure: 29.91"   Gusts: NA
Location:  21.92°N, 110.87°E
Report Text: ZJHK 232000Z 09001MPS 7000 NSC 22/20 Q1013 NOSIG
Loading
Personal Weather Stations






























Interactive Weather Map New forecast layout! Learn more

10-Day Weather Forecast

Advertisements
Track Severe Weather on mobile